createdAt,value
2017-08-10T00:00:00.893Z,6.80
2017-08-10T00:02:27.163Z,6.47
2017-08-10T00:04:53.443Z,6.43
2017-08-10T00:07:19.738Z,7.03
2017-08-10T00:09:46.014Z,7.20
2017-08-10T00:12:12.302Z,7.30
2017-08-10T00:14:38.595Z,7.60
2017-08-10T00:17:04.906Z,7.37
2017-08-10T00:19:31.181Z,8.47
2017-08-10T00:21:57.457Z,9.30
2017-08-10T00:24:23.713Z,10.60
2017-08-10T00:26:49.993Z,8.80
2017-08-10T00:29:16.274Z,8.63
2017-08-10T00:31:42.545Z,9.10
2017-08-10T00:34:08.850Z,6.77
2017-08-10T00:36:35.128Z,7.50
2017-08-10T00:39:01.403Z,7.40
2017-08-10T00:41:27.681Z,7.50
2017-08-10T00:43:53.966Z,7.47
2017-08-10T00:46:20.259Z,6.70
2017-08-10T00:48:46.599Z,6.70
2017-08-10T00:51:12.901Z,6.53
2017-08-10T00:53:39.189Z,6.37
2017-08-10T00:56:05.461Z,6.97
2017-08-10T00:58:31.798Z,7.60
2017-08-10T01:00:58.091Z,7.73
2017-08-10T01:03:24.600Z,8.40
2017-08-10T01:05:50.898Z,7.93
2017-08-10T01:08:17.162Z,8.00
2017-08-10T01:10:43.455Z,7.90
2017-08-10T01:13:09.732Z,8.10
2017-08-10T01:15:36.699Z,7.57
2017-08-10T01:18:03.174Z,7.37
2017-08-10T01:20:29.445Z,7.33
2017-08-10T01:22:55.766Z,7.93
2017-08-10T01:25:22.051Z,7.27
2017-08-10T01:27:48.324Z,7.40
2017-08-10T01:30:14.612Z,7.30
2017-08-10T01:32:40.916Z,7.97
2017-08-10T01:35:07.198Z,6.80
2017-08-10T01:37:33.524Z,6.60
2017-08-10T01:39:59.836Z,6.50
2017-08-10T01:42:26.141Z,7.20
2017-08-10T01:44:52.425Z,7.40
2017-08-10T01:47:18.746Z,7.10
2017-08-10T01:49:45.072Z,7.80
2017-08-10T01:52:11.422Z,8.83
2017-08-10T01:54:37.722Z,11.33
2017-08-10T01:57:04.235Z,8.80
2017-08-10T01:59:30.536Z,8.23
2017-08-10T02:01:56.861Z,10.67
2017-08-10T02:04:23.178Z,9.90
2017-08-10T02:06:49.500Z,9.27
2017-08-10T02:09:15.784Z,8.80
2017-08-10T02:11:42.351Z,9.00
2017-08-10T02:14:08.749Z,10.07
2017-08-10T02:16:35.025Z,10.47
2017-08-10T02:19:01.316Z,9.83
2017-08-10T02:21:27.587Z,11.30
2017-08-10T02:23:53.869Z,11.10
2017-08-10T02:26:20.134Z,10.83
2017-08-10T02:28:46.395Z,11.43
2017-08-10T02:31:12.677Z,12.07
2017-08-10T02:33:38.966Z,11.80
2017-08-10T02:36:05.255Z,11.53
2017-08-10T02:38:31.746Z,11.50
2017-08-10T02:40:58.023Z,11.10
2017-08-10T02:43:24.298Z,12.10
2017-08-10T02:45:50.598Z,12.40
2017-08-10T02:48:16.886Z,10.97
2017-08-10T02:50:43.186Z,11.10
2017-08-10T02:53:09.460Z,12.07
2017-08-10T02:55:35.737Z,11.40
2017-08-10T02:58:02.016Z,11.30
2017-08-10T03:00:28.273Z,11.60
2017-08-10T03:02:54.565Z,12.13
2017-08-10T03:05:20.842Z,12.97
2017-08-10T03:07:47.137Z,12.20
2017-08-10T03:10:13.391Z,11.30
2017-08-10T03:12:39.674Z,12.70
2017-08-10T03:15:06.404Z,12.40
2017-08-10T03:17:32.690Z,12.00
2017-08-10T03:19:58.959Z,11.70
2017-08-10T03:22:25.248Z,10.33
2017-08-10T03:24:51.540Z,10.63
2017-08-10T03:27:17.860Z,10.90
2017-08-10T03:29:44.945Z,11.67
2017-08-10T03:32:11.221Z,11.20
2017-08-10T03:34:37.478Z,10.90
2017-08-10T03:37:03.736Z,10.80
2017-08-10T03:39:30.028Z,10.30
2017-08-10T03:41:56.604Z,11.10
2017-08-10T03:44:22.896Z,10.60
2017-08-10T03:46:49.181Z,11.00
2017-08-10T03:49:15.465Z,10.83
2017-08-10T03:51:41.751Z,11.10
2017-08-10T03:54:08.076Z,12.10
2017-08-10T03:56:34.360Z,11.03
2017-08-10T03:59:00.649Z,10.40
2017-08-10T04:01:26.926Z,9.97
2017-08-10T04:03:53.994Z,10.30
2017-08-10T04:06:20.293Z,9.93
2017-08-10T04:08:46.573Z,11.13
2017-08-10T04:11:12.912Z,10.20
2017-08-10T04:13:39.180Z,10.57
2017-08-10T04:16:05.465Z,11.63
2017-08-10T04:18:31.750Z,10.80
2017-08-10T04:20:58.032Z,9.60
2017-08-10T04:23:24.301Z,9.53
2017-08-10T04:25:50.571Z,9.47
2017-08-10T04:28:16.830Z,10.43
2017-08-10T04:30:43.129Z,10.30
2017-08-10T04:33:09.428Z,9.80
2017-08-10T04:35:35.688Z,10.27
2017-08-10T04:38:02.021Z,9.27
2017-08-10T04:40:28.316Z,8.83
2017-08-10T04:42:54.617Z,8.60
2017-08-10T04:45:21.871Z,8.57
2017-08-10T04:47:48.168Z,9.50
2017-08-10T04:50:14.444Z,10.60
2017-08-10T04:52:40.840Z,10.10
2017-08-10T04:55:07.438Z,10.33
2017-08-10T04:57:33.846Z,9.37
2017-08-10T05:00:00.277Z,10.03
2017-08-10T05:02:26.809Z,9.47
2017-08-10T05:04:53.196Z,8.70
2017-08-10T05:07:20.447Z,8.27
2017-08-10T05:09:46.812Z,8.40
2017-08-10T05:12:13.255Z,8.90
2017-08-10T05:14:39.657Z,8.20
2017-08-10T05:17:05.954Z,7.83
2017-08-10T05:19:32.237Z,8.00
2017-08-10T05:22:00.451Z,8.60
2017-08-10T05:24:26.758Z,9.20
2017-08-10T05:26:53.058Z,9.43
2017-08-10T05:29:19.345Z,9.53
2017-08-10T05:31:45.645Z,8.80
2017-08-10T05:34:11.929Z,8.70
2017-08-10T05:36:38.231Z,8.80
2017-08-10T05:39:04.522Z,8.73
2017-08-10T05:41:30.853Z,9.33
2017-08-10T05:43:57.117Z,11.70
2017-08-10T05:46:23.413Z,11.67
2017-08-10T05:48:49.717Z,10.50
2017-08-10T05:51:16.013Z,10.70
2017-08-10T05:53:42.336Z,9.10
2017-08-10T05:56:09.392Z,10.80
2017-08-10T05:58:35.677Z,12.90
2017-08-10T06:01:01.980Z,15.03
2017-08-10T06:03:28.277Z,13.97
2017-08-10T06:05:54.548Z,14.70
2017-08-10T06:08:20.822Z,15.03
2017-08-10T06:10:47.857Z,14.40
2017-08-10T06:13:14.157Z,14.30
2017-08-10T06:15:40.438Z,16.33
2017-08-10T06:18:06.748Z,16.40
2017-08-10T06:20:33.042Z,15.93
2017-08-10T06:22:59.288Z,16.53
2017-08-10T06:25:25.607Z,16.50
2017-08-10T06:27:51.864Z,17.77
2017-08-10T06:30:18.145Z,16.90
2017-08-10T06:32:44.418Z,17.53
2017-08-10T06:35:10.714Z,17.30
2017-08-10T06:37:36.992Z,19.00
2017-08-10T06:40:03.297Z,18.73
2017-08-10T06:42:29.582Z,18.20
2017-08-10T06:44:55.864Z,17.20
2017-08-10T06:47:22.135Z,18.70
2017-08-10T06:49:48.429Z,18.37
2017-08-10T06:52:14.715Z,17.03
2017-08-10T06:54:41.002Z,16.97
2017-08-10T06:57:07.287Z,18.80
2017-08-10T06:59:34.384Z,19.20
2017-08-10T07:02:01.399Z,18.33
2017-08-10T07:04:27.703Z,17.60
2017-08-10T07:06:53.981Z,15.60
2017-08-10T07:09:21.277Z,16.53
2017-08-10T07:11:47.582Z,16.27
2017-08-10T07:14:14.598Z,15.67
2017-08-10T07:16:41.635Z,15.90
2017-08-10T07:19:07.906Z,15.83
2017-08-10T07:21:34.189Z,15.67
2017-08-10T07:24:00.455Z,17.30
2017-08-10T07:26:26.747Z,16.23
2017-08-10T07:28:53.036Z,16.10
2017-08-10T07:31:19.357Z,13.87
2017-08-10T07:33:45.639Z,14.83
2017-08-10T07:36:11.955Z,12.10
2017-08-10T07:38:38.236Z,11.53
2017-08-10T07:41:04.547Z,9.90
2017-08-10T07:43:31.570Z,9.30
2017-08-10T07:45:57.832Z,8.00
2017-08-10T07:48:24.856Z,7.30
2017-08-10T07:50:51.894Z,6.60
2017-08-10T07:53:18.175Z,7.53
2017-08-10T07:55:44.446Z,7.03
2017-08-10T07:58:10.736Z,5.77
2017-08-10T08:00:37.029Z,6.10
2017-08-10T08:03:04.069Z,5.27
2017-08-10T08:05:31.104Z,4.70
2017-08-10T08:08:04.347Z,4.87
2017-08-10T08:10:30.626Z,4.50
2017-08-10T08:12:56.884Z,3.83
2017-08-10T08:15:23.910Z,3.10
2017-08-10T08:17:50.169Z,3.13
2017-08-10T08:20:17.197Z,3.57
2017-08-10T08:22:44.219Z,4.00
2017-08-10T08:25:10.528Z,3.60
2017-08-10T08:27:36.806Z,3.77
2017-08-10T08:30:03.834Z,4.00
2017-08-10T08:32:30.113Z,3.77
2017-08-10T08:34:56.416Z,3.30
2017-08-10T08:37:22.681Z,2.80
2017-08-10T08:39:48.952Z,3.10
2017-08-10T08:42:15.237Z,2.80
2017-08-10T08:44:41.516Z,3.37
2017-08-10T08:47:07.868Z,3.00
2017-08-10T08:49:34.151Z,3.27
2017-08-10T08:52:00.452Z,3.77
2017-08-10T08:54:26.720Z,3.30
2017-08-10T08:56:53.024Z,3.30
2017-08-10T08:59:19.315Z,4.10
2017-08-10T09:01:45.621Z,3.50
2017-08-10T09:04:11.922Z,3.57
2017-08-10T09:06:38.211Z,3.20
2017-08-10T09:09:04.480Z,3.50
2017-08-10T09:11:30.778Z,3.30
2017-08-10T09:13:57.068Z,4.07
2017-08-10T09:16:24.105Z,3.50
2017-08-10T09:18:50.390Z,4.10
2017-08-10T09:21:16.648Z,4.43
2017-08-10T09:23:42.936Z,3.90
2017-08-10T09:26:09.228Z,3.63
2017-08-10T09:28:35.521Z,4.47
2017-08-10T09:31:01.836Z,4.80
2017-08-10T09:33:28.136Z,4.60
2017-08-10T09:35:55.170Z,4.00
2017-08-10T09:38:22.214Z,4.13
2017-08-10T09:40:48.488Z,4.13
2017-08-10T09:43:14.783Z,4.43
2017-08-10T09:45:41.826Z,4.33
2017-08-10T09:48:08.860Z,3.70
2017-08-10T09:50:35.922Z,3.40
2017-08-10T09:53:02.994Z,4.63
2017-08-10T09:55:29.321Z,4.63
2017-08-10T09:57:55.621Z,5.97
2017-08-10T10:00:21.909Z,5.60
2017-08-10T10:02:48.191Z,5.00
2017-08-10T10:05:14.497Z,4.07
2017-08-10T10:07:40.771Z,6.67
2017-08-10T10:10:07.073Z,6.93
2017-08-10T10:12:33.352Z,8.40
2017-08-10T10:14:59.657Z,8.33
2017-08-10T10:17:25.987Z,8.70
2017-08-10T10:19:52.260Z,8.90
2017-08-10T10:22:19.355Z,9.10
2017-08-10T10:24:45.642Z,9.60
2017-08-10T10:27:11.950Z,10.20
2017-08-10T10:29:38.233Z,11.50
2017-08-10T10:32:05.348Z,9.60
2017-08-10T10:34:31.632Z,9.50
2017-08-10T10:36:57.917Z,9.73
2017-08-10T10:39:24.204Z,9.20
2017-08-10T10:41:50.491Z,8.43
2017-08-10T10:44:17.533Z,8.53
2017-08-10T10:46:43.817Z,8.63
2017-08-10T10:49:10.096Z,7.23
2017-08-10T10:51:36.381Z,7.10
2017-08-10T10:54:02.689Z,7.93
2017-08-10T10:56:28.981Z,6.80
2017-08-10T10:58:56.021Z,5.70
2017-08-10T11:01:22.317Z,6.33
2017-08-10T11:03:48.609Z,5.40
2017-08-10T11:06:14.877Z,5.90
2017-08-10T11:08:41.168Z,4.53
2017-08-10T11:11:07.448Z,4.83
2017-08-10T11:13:33.737Z,4.87
2017-08-10T11:16:00.026Z,3.50
2017-08-10T11:18:26.313Z,4.53
2017-08-10T11:20:52.612Z,4.37
2017-08-10T11:23:18.903Z,3.40
2017-08-10T11:25:45.948Z,3.53
2017-08-10T11:28:12.228Z,4.43
2017-08-10T11:30:38.525Z,4.30
2017-08-10T11:33:05.561Z,4.30
2017-08-10T11:35:31.822Z,3.37
2017-08-10T11:37:58.090Z,3.73
2017-08-10T11:40:24.374Z,3.20
2017-08-10T11:42:50.662Z,3.30
2017-08-10T11:45:16.951Z,2.90
2017-08-10T11:47:43.234Z,3.37
2017-08-10T11:50:09.516Z,3.43
2017-08-10T11:52:35.785Z,3.20
2017-08-10T11:55:02.086Z,3.50
2017-08-10T11:57:28.352Z,3.37
2017-08-10T11:59:54.614Z,3.00
2017-08-10T12:02:21.652Z,3.13
2017-08-10T12:04:48.676Z,3.50
2017-08-10T12:07:14.997Z,3.17
2017-08-10T12:09:41.263Z,2.80
2017-08-10T12:12:07.534Z,3.30
2017-08-10T12:14:33.825Z,2.27
2017-08-10T12:17:00.107Z,2.80
2017-08-10T12:19:26.368Z,2.93
2017-08-10T12:21:52.650Z,3.00
2017-08-10T12:24:18.942Z,2.80
2017-08-10T12:26:45.222Z,2.50
2017-08-10T12:29:11.507Z,2.80
2017-08-10T12:31:37.778Z,2.53
2017-08-10T12:34:04.074Z,2.87
2017-08-10T12:36:30.381Z,2.77
2017-08-10T12:38:56.688Z,3.50
2017-08-10T12:41:22.986Z,3.33
2017-08-10T12:43:49.277Z,3.30
2017-08-10T12:46:15.578Z,3.20
2017-08-10T12:48:41.860Z,3.20
2017-08-10T12:51:08.139Z,3.93
2017-08-10T12:53:34.395Z,3.97
2017-08-10T12:56:00.711Z,4.00
2017-08-10T12:58:26.984Z,4.83
2017-08-10T13:00:53.269Z,4.33
2017-08-10T13:03:20.308Z,4.60
2017-08-10T13:05:46.616Z,4.40
2017-08-10T13:08:12.874Z,4.43
2017-08-10T13:10:39.151Z,3.93
2017-08-10T13:13:05.447Z,3.87
2017-08-10T13:15:31.728Z,3.80
2017-08-10T13:18:04.985Z,4.53
2017-08-10T13:20:31.262Z,5.03
2017-08-10T13:22:57.569Z,4.77
2017-08-10T13:25:23.859Z,3.30
2017-08-10T13:27:50.173Z,4.57
2017-08-10T13:30:16.462Z,3.53
2017-08-10T13:32:42.752Z,3.17
2017-08-10T13:35:09.020Z,3.50
2017-08-10T13:37:35.354Z,3.13
2017-08-10T13:40:01.635Z,2.87
2017-08-10T13:42:27.961Z,2.90
2017-08-10T13:44:54.242Z,3.17
2017-08-10T13:47:20.525Z,4.00
2017-08-10T13:49:47.541Z,3.00
2017-08-10T13:52:13.831Z,2.53
2017-08-10T13:54:40.148Z,2.50
2017-08-10T13:57:06.425Z,2.20
2017-08-10T13:59:32.697Z,2.17
2017-08-10T14:01:58.968Z,2.90
2017-08-10T14:04:25.252Z,2.40
2017-08-10T14:06:51.564Z,3.20
2017-08-10T14:09:17.863Z,2.53
2017-08-10T14:11:44.134Z,2.80
2017-08-10T14:14:11.146Z,2.80
2017-08-10T14:16:37.433Z,2.13
2017-08-10T14:19:03.701Z,2.13
2017-08-10T14:21:30.000Z,3.00
2017-08-10T14:23:56.265Z,2.30
2017-08-10T14:26:22.571Z,2.30
2017-08-10T14:28:48.844Z,2.73
2017-08-10T14:31:15.121Z,1.97
2017-08-10T14:33:41.381Z,2.20
2017-08-10T14:36:07.685Z,2.10
2017-08-10T14:38:33.951Z,2.10
2017-08-10T14:41:00.993Z,1.80
2017-08-10T14:43:28.020Z,1.70
2017-08-10T14:45:54.293Z,2.27
2017-08-10T14:48:21.323Z,2.27
2017-08-10T14:50:48.347Z,1.87
2017-08-10T14:53:14.633Z,2.20
2017-08-10T14:55:40.925Z,2.30
2017-08-10T14:58:08.067Z,2.20
2017-08-10T15:00:34.434Z,1.80
2017-08-10T15:03:00.738Z,2.10
2017-08-10T15:05:35.023Z,1.70
2017-08-10T15:08:01.302Z,2.00
2017-08-10T15:10:27.579Z,1.73
2017-08-10T15:12:53.902Z,1.93
2017-08-10T15:15:20.180Z,2.10
2017-08-10T15:17:47.216Z,1.63
2017-08-10T15:20:13.492Z,1.70
2017-08-10T15:22:39.769Z,1.80
2017-08-10T15:25:06.054Z,1.90
2017-08-10T15:27:32.319Z,2.00
2017-08-10T15:29:58.611Z,1.87
2017-08-10T15:32:24.923Z,1.90
2017-08-10T15:34:51.202Z,1.93
2017-08-10T15:37:18.450Z,2.10
2017-08-10T15:39:44.758Z,1.70
2017-08-10T15:42:11.040Z,1.80
2017-08-10T15:44:38.068Z,1.37
2017-08-10T15:47:04.354Z,1.70
2017-08-10T15:49:30.728Z,2.10
2017-08-10T15:51:56.999Z,1.90
2017-08-10T15:54:23.294Z,1.83
2017-08-10T15:56:49.588Z,1.50
2017-08-10T15:59:15.881Z,2.03
2017-08-10T16:01:42.194Z,1.50
2017-08-10T16:04:09.219Z,2.07
2017-08-10T16:06:35.508Z,1.83
2017-08-10T16:09:01.788Z,1.80
2017-08-10T16:11:28.834Z,2.40
2017-08-10T16:13:55.089Z,1.90
2017-08-10T16:16:21.384Z,2.30
2017-08-10T16:18:47.673Z,2.30
2017-08-10T16:21:13.924Z,2.37
2017-08-10T16:23:40.235Z,2.77
2017-08-10T16:26:06.509Z,2.00
2017-08-10T16:28:32.786Z,2.53
2017-08-10T16:30:59.070Z,2.60
2017-08-10T16:33:26.246Z,2.30
2017-08-10T16:35:52.541Z,2.63
2017-08-10T16:38:18.818Z,2.87
2017-08-10T16:40:45.119Z,2.70
2017-08-10T16:43:11.433Z,2.87
2017-08-10T16:45:37.784Z,2.97
2017-08-10T16:48:04.230Z,2.47
2017-08-10T16:50:30.521Z,2.73
2017-08-10T16:52:56.975Z,2.87
2017-08-10T16:55:24.181Z,2.80
2017-08-10T16:57:50.471Z,3.10
2017-08-10T17:00:16.740Z,2.80
2017-08-10T17:02:43.007Z,2.50
2017-08-10T17:05:09.307Z,2.83
2017-08-10T17:07:35.636Z,2.70
2017-08-10T17:10:01.944Z,2.60
2017-08-10T17:12:28.261Z,2.40
2017-08-10T17:14:54.564Z,2.93
2017-08-10T17:17:20.833Z,2.80
2017-08-10T17:19:47.135Z,2.77
2017-08-10T17:22:13.419Z,2.97
2017-08-10T17:24:40.699Z,2.63
2017-08-10T17:27:06.991Z,2.80
2017-08-10T17:29:33.950Z,2.30
2017-08-10T17:32:00.241Z,2.10
2017-08-10T17:34:26.558Z,2.40
2017-08-10T17:36:53.707Z,2.30
2017-08-10T17:39:20.039Z,2.07
2017-08-10T17:41:46.348Z,2.20
2017-08-10T17:44:12.638Z,1.93
2017-08-10T17:46:39.842Z,2.77
2017-08-10T17:49:06.136Z,2.00
2017-08-10T17:51:32.435Z,2.30
2017-08-10T17:53:58.716Z,2.23
2017-08-10T17:56:25.037Z,2.60
2017-08-10T17:58:51.342Z,3.10
2017-08-10T18:01:17.677Z,2.07
2017-08-10T18:03:43.972Z,2.50
2017-08-10T18:06:10.253Z,2.23
2017-08-10T18:08:36.538Z,2.60
2017-08-10T18:11:02.807Z,2.07
2017-08-10T18:13:29.152Z,2.00
2017-08-10T18:15:56.409Z,2.37
2017-08-10T18:18:22.813Z,2.30
2017-08-10T18:20:49.148Z,2.37
2017-08-10T18:23:15.456Z,2.70
2017-08-10T18:25:41.748Z,2.30
2017-08-10T18:28:08.050Z,2.43
2017-08-10T18:30:34.350Z,2.10
2017-08-10T18:33:00.658Z,2.30
2017-08-10T18:35:26.925Z,2.70
2017-08-10T18:37:54.209Z,2.27
2017-08-10T18:40:20.514Z,2.90
2017-08-10T18:42:46.861Z,5.77
2017-08-10T18:45:13.162Z,2.87
2017-08-10T18:47:39.446Z,3.10
2017-08-10T18:50:05.735Z,3.00
2017-08-10T18:52:32.037Z,3.17
2017-08-10T18:54:58.338Z,3.20
2017-08-10T18:57:24.649Z,3.30
2017-08-10T18:59:50.973Z,3.13
2017-08-10T19:02:17.309Z,2.90
2017-08-10T19:04:43.680Z,2.57
2017-08-10T19:07:10.229Z,3.50
2017-08-10T19:09:36.558Z,2.93
2017-08-10T19:12:02.841Z,2.47
2017-08-10T19:14:29.145Z,2.17
2017-08-10T19:16:55.465Z,2.90
2017-08-10T19:19:21.757Z,2.20
2017-08-10T19:21:48.036Z,2.60
2017-08-10T19:24:14.354Z,3.30
2017-08-10T19:26:40.634Z,2.40
2017-08-10T19:29:06.925Z,2.03
2017-08-10T19:31:33.308Z,1.90
2017-08-10T19:33:59.592Z,2.47
2017-08-10T19:36:25.883Z,2.27
2017-08-10T19:38:52.156Z,2.40
2017-08-10T19:41:18.462Z,2.40
2017-08-10T19:43:44.737Z,2.50
2017-08-10T19:46:11.250Z,2.80
2017-08-10T19:48:37.628Z,2.60
2017-08-10T19:51:04.695Z,2.90
2017-08-10T19:53:31.344Z,2.90
2017-08-10T19:55:57.617Z,2.50
2017-08-10T19:58:23.898Z,2.60
2017-08-10T20:00:50.179Z,2.40
2017-08-10T20:03:16.444Z,2.90
2017-08-10T20:05:42.700Z,2.70
2017-08-10T20:08:08.953Z,2.70
2017-08-10T20:10:35.451Z,2.30
2017-08-10T20:13:01.743Z,3.13
2017-08-10T20:15:28.004Z,3.27
2017-08-10T20:17:55.146Z,4.73
2017-08-10T20:20:21.402Z,3.80
2017-08-10T20:22:48.449Z,3.10
2017-08-10T20:25:14.737Z,3.07
2017-08-10T20:27:41.010Z,3.10
2017-08-10T20:30:07.268Z,3.47
2017-08-10T20:32:34.233Z,3.10
2017-08-10T20:35:00.501Z,2.83
2017-08-10T20:37:26.767Z,2.97
2017-08-10T20:39:53.033Z,2.50
2017-08-10T20:42:19.306Z,2.70
2017-08-10T20:44:46.300Z,2.97
2017-08-10T20:47:12.561Z,3.80
2017-08-10T20:49:38.830Z,2.60
2017-08-10T20:52:05.094Z,3.30
2017-08-10T20:54:31.362Z,3.17
2017-08-10T20:56:58.364Z,3.03
2017-08-10T20:59:24.658Z,3.13
2017-08-10T21:01:50.944Z,2.33
2017-08-10T21:04:17.186Z,3.13
2017-08-10T21:06:43.453Z,2.97
2017-08-10T21:09:09.705Z,3.03
2017-08-10T21:11:36.017Z,3.00
2017-08-10T21:14:02.264Z,2.60
2017-08-10T21:16:28.533Z,2.50
2017-08-10T21:18:55.540Z,2.90
2017-08-10T21:21:21.858Z,3.50
2017-08-10T21:23:48.154Z,3.07
2017-08-10T21:26:15.159Z,2.70
2017-08-10T21:28:41.417Z,2.80
2017-08-10T21:31:08.409Z,3.40
2017-08-10T21:33:34.681Z,3.40
2017-08-10T21:36:00.932Z,3.07
2017-08-10T21:38:27.945Z,3.30
2017-08-10T21:40:54.215Z,3.20
2017-08-10T21:43:20.474Z,3.20
2017-08-10T21:45:46.740Z,3.13
2017-08-10T21:48:13.023Z,3.67
2017-08-10T21:50:39.300Z,3.87
2017-08-10T21:53:06.627Z,4.33
2017-08-10T21:55:32.888Z,3.73
2017-08-10T21:57:59.875Z,4.40
2017-08-10T22:00:26.167Z,3.83
2017-08-10T22:02:52.395Z,3.50
2017-08-10T22:05:19.405Z,3.10
2017-08-10T22:07:45.669Z,3.67
2017-08-10T22:10:12.683Z,3.60
2017-08-10T22:12:38.948Z,3.33
2017-08-10T22:15:05.965Z,3.47
2017-08-10T22:17:32.229Z,3.50
2017-08-10T22:19:59.219Z,3.80
2017-08-10T22:22:25.480Z,4.00
2017-08-10T22:24:52.473Z,3.40
2017-08-10T22:27:18.751Z,3.40
2017-08-10T22:29:45.003Z,3.80
2017-08-10T22:32:11.276Z,3.40
2017-08-10T22:34:37.532Z,3.70
2017-08-10T22:37:03.821Z,3.50
2017-08-10T22:39:30.083Z,3.90
2017-08-10T22:41:56.366Z,3.70
2017-08-10T22:44:22.629Z,3.50
2017-08-10T22:46:48.911Z,3.87
2017-08-10T22:49:15.909Z,3.90
2017-08-10T22:51:42.166Z,3.80
2017-08-10T22:54:08.426Z,3.93
2017-08-10T22:56:34.691Z,4.10
2017-08-10T22:59:00.946Z,3.60
2017-08-10T23:01:27.189Z,4.30
2017-08-10T23:03:53.480Z,3.73
2017-08-10T23:06:19.767Z,3.80
2017-08-10T23:08:46.065Z,3.70
2017-08-10T23:11:13.066Z,4.37
2017-08-10T23:13:39.344Z,4.13
2017-08-10T23:16:05.623Z,3.83
2017-08-10T23:18:31.915Z,4.40
2017-08-10T23:20:58.173Z,4.20
2017-08-10T23:23:24.426Z,4.53
2017-08-10T23:25:50.696Z,4.27
2017-08-10T23:28:16.966Z,4.77
2017-08-10T23:30:43.229Z,4.33
2017-08-10T23:33:10.316Z,4.80
2017-08-10T23:35:37.315Z,4.03
2017-08-10T23:38:04.506Z,4.30
2017-08-10T23:40:31.519Z,4.57
2017-08-10T23:42:57.798Z,4.27
2017-08-10T23:45:24.073Z,4.30
2017-08-10T23:47:50.337Z,4.23
2017-08-10T23:50:17.384Z,4.43
2017-08-10T23:52:43.666Z,4.43
2017-08-10T23:55:09.929Z,4.53
2017-08-10T23:57:36.208Z,4.13
